Time;durP1;ratioP1;P1;durP2;ratioP2;P2;SDS_P1;SDS_P2;PMS_P1;PMS_P2;Temp;Humidity;BMP_temperature;BMP_pressure;BME280_temperature;BME280_humidity;BME280_pressure;Samples;Min_cycle;Max_cycle;Signal;HPM_P1;HPM_P2
2022/05/13 00:01:09;;;;;;;19.58;5.68;;;12.60;99.90;;;;;;4956378;28;20093;-83
2022/05/13 00:03:37;;;;;;;17.23;5.35;;;12.60;99.90;;;;;;4973198;28;20098;-80
2022/05/13 00:06:03;;;;;;;13.63;5.60;;;12.60;99.90;;;;;;4974433;28;20054;-81
2022/05/13 00:08:30;;;;;;;15.38;5.07;;;12.60;99.90;;;;;;4975623;28;20054;-81
2022/05/13 00:10:56;;;;;;;15.82;5.13;;;12.60;99.90;;;;;;4957291;28;20093;-84
2022/05/13 00:13:22;;;;;;;15.15;5.97;;;12.60;99.90;;;;;;4974694;28;20059;-82
2022/05/13 00:15:48;;;;;;;16.50;6.13;;;12.50;99.90;;;;;;4974628;28;20046;-83
2022/05/13 00:18:16;;;;;;;17.95;5.20;;;12.50;99.90;;;;;;4974570;28;20131;-84
2022/05/13 00:20:42;;;;;;;29.45;6.03;;;12.50;99.90;;;;;;4974437;28;20488;-82
2022/05/13 00:23:08;;;;;;;20.75;5.90;;;12.60;99.90;;;;;;4973456;28;20043;-84
2022/05/13 00:25:36;;;;;;;18.70;4.57;;;12.50;99.90;;;;;;4959997;28;20063;-83
2022/05/13 00:28:04;;;;;;;18.30;5.88;;;12.60;99.90;;;;;;4957223;28;20507;-82
2022/05/13 00:30:37;;;;;;;15.75;4.65;;;12.60;99.90;;;;;;4974523;28;20046;-83
2022/05/13 00:33:03;;;;;;;24.63;5.80;;;12.50;99.90;;;;;;4973208;28;20058;-81
2022/05/13 00:35:30;;;;;;;19.95;5.93;;;12.60;99.90;;;;;;4974220;28;20051;-83
2022/05/13 00:37:56;;;;;;;21.83;6.18;;;12.60;99.90;;;;;;4974635;28;20047;-83
2022/05/13 00:40:23;;;;;;;19.00;5.82;;;12.60;99.90;;;;;;4975408;28;20145;-81
2022/05/13 00:42:50;;;;;;;24.20;5.95;;;12.60;99.90;;;;;;4976582;28;20083;-83
2022/05/13 00:45:18;;;;;;;19.50;5.50;;;12.60;99.90;;;;;;4957737;28;20062;-84
2022/05/13 00:47:44;;;;;;;15.80;5.28;;;12.60;99.90;;;;;;4974308;28;20418;-82
2022/05/13 00:50:14;;;;;;;21.60;6.43;;;12.60;99.90;;;;;;4973539;28;20055;-84
2022/05/13 00:52:43;;;;;;;26.83;6.03;;;12.60;99.90;;;;;;4956510;28;20058;-82
2022/05/13 00:55:13;;;;;;;16.67;5.57;;;12.60;99.90;;;;;;4972565;28;20050;-82
2022/05/13 00:57:40;;;;;;;23.73;7.50;;;12.60;99.90;;;;;;4973699;28;20133;-81
2022/05/13 01:00:11;;;;;;;27.88;6.88;;;12.60;99.90;;;;;;4957367;28;20050;-85
2022/05/13 01:02:37;;;;;;;26.02;6.63;;;12.60;99.90;;;;;;4956911;28;20051;-82
2022/05/13 01:05:05;;;;;;;25.95;6.75;;;12.60;99.90;;;;;;4956255;28;20055;-82
2022/05/13 01:07:32;;;;;;;21.95;6.22;;;12.60;99.90;;;;;;4956092;28;20133;-83
2022/05/13 01:10:03;;;;;;;26.00;7.05;;;12.60;99.90;;;;;;4956031;28;20109;-81
2022/05/13 01:12:36;;;;;;;30.02;7.07;;;12.60;99.90;;;;;;4973623;28;20455;-84
2022/05/13 01:15:12;;;;;;;28.55;6.38;;;12.70;99.90;;;;;;4973329;28;20100;-84
2022/05/13 01:20:28;;;;;;;28.90;6.63;;;12.60;99.90;;;;;;4956054;28;20515;-81
2022/05/13 01:22:58;;;;;;;28.42;7.13;;;12.70;99.90;;;;;;4973316;28;20114;-83
2022/05/13 01:25:26;;;;;;;31.52;7.70;;;12.70;99.90;;;;;;4955594;28;20055;-83
2022/05/13 01:27:54;;;;;;;29.85;7.90;;;12.70;99.90;;;;;;4971986;28;20063;-84
2022/05/13 01:30:22;;;;;;;28.88;7.85;;;12.70;99.90;;;;;;4955589;28;20491;-81
2022/05/13 01:32:48;;;;;;;28.35;7.35;;;12.70;99.90;;;;;;4973515;28;20499;-82
2022/05/13 01:35:14;;;;;;;30.13;7.93;;;12.70;99.90;;;;;;4976369;28;20066;-83
2022/05/13 01:37:40;;;;;;;33.92;7.07;;;12.70;99.90;;;;;;4975272;28;20074;-80
2022/05/13 01:40:07;;;;;;;35.38;7.80;;;12.70;99.90;;;;;;4955585;28;20492;-84
2022/05/13 01:42:34;;;;;;;18.67;6.53;;;12.70;99.90;;;;;;4955383;28;20131;-80
2022/05/13 01:45:00;;;;;;;35.00;7.57;;;12.70;99.90;;;;;;4973096;28;20050;-83
2022/05/13 01:47:27;;;;;;;22.50;6.35;;;12.70;99.90;;;;;;4956045;28;20546;-82
2022/05/13 01:49:53;;;;;;;24.00;6.43;;;12.70;99.90;;;;;;4972857;28;20090;-81
2022/05/13 01:52:19;;;;;;;34.22;7.85;;;12.70;99.90;;;;;;4958343;28;20051;-82
2022/05/13 01:54:46;;;;;;;30.77;7.07;;;12.70;99.90;;;;;;4977469;28;20055;-82
2022/05/13 01:57:12;;;;;;;32.10;8.07;;;12.70;99.90;;;;;;4955882;28;20050;-84
2022/05/13 01:59:38;;;;;;;35.33;7.75;;;12.70;99.90;;;;;;4973286;28;20055;-85
2022/05/13 02:02:04;;;;;;;28.55;6.53;;;12.70;99.90;;;;;;4973997;28;20051;-81
2022/05/13 02:04:30;;;;;;;23.38;6.57;;;12.70;99.90;;;;;;4955220;28;20890;-84
2022/05/13 02:06:56;;;;;;;21.58;6.18;;;12.70;99.90;;;;;;4972581;28;20049;-83
2022/05/13 02:09:23;;;;;;;21.35;5.90;;;12.70;99.90;;;;;;4974923;28;20055;-81
2022/05/13 02:11:49;;;;;;;31.48;6.63;;;12.70;99.90;;;;;;4955043;28;20522;-82
2022/05/13 02:14:17;;;;;;;25.13;7.68;;;12.70;99.90;;;;;;4972601;28;20061;-80
2022/05/13 02:16:42;;;;;;;26.83;6.95;;;12.70;99.90;;;;;;4972728;28;20047;-83
2022/05/13 02:19:09;;;;;;;31.42;7.60;;;12.70;99.90;;;;;;4970837;28;20517;-83
2022/05/13 02:21:35;;;;;;;25.85;6.47;;;12.60;99.90;;;;;;4954958;28;20055;-83
2022/05/13 02:24:05;;;;;;;20.75;6.50;;;12.60;99.90;;;;;;4938850;28;20109;-83
2022/05/13 02:26:31;;;;;;;37.63;6.65;;;12.60;99.90;;;;;;4974961;28;20047;-84
2022/05/13 02:29:01;;;;;;;19.73;6.63;;;12.60;99.90;;;;;;4972915;28;20050;-80
2022/05/13 02:31:27;;;;;;;24.77;6.78;;;12.60;99.90;;;;;;4972001;28;20059;-82
2022/05/13 02:33:53;;;;;;;24.77;6.78;;;12.60;99.90;;;;;;4970654;28;20731;-83
2022/05/13 02:36:19;;;;;;;25.30;7.38;;;12.50;99.90;;;;;;4954658;28;20146;-81
2022/05/13 02:38:46;;;;;;;25.88;7.15;;;12.60;99.90;;;;;;4954509;28;20051;-79
2022/05/13 02:41:12;;;;;;;24.92;7.22;;;12.50;99.90;;;;;;4972145;28;20070;-83
2022/05/13 02:43:50;;;;;;;24.67;7.15;;;12.50;99.90;;;;;;4975955;28;20050;-80
2022/05/13 02:46:28;;;;;;;22.52;7.45;;;12.50;99.90;;;;;;4971388;28;20589;-80
2022/05/13 02:48:55;;;;;;;27.40;7.03;;;12.50;99.90;;;;;;4954219;28;20450;-80
2022/05/13 02:51:22;;;;;;;28.40;7.13;;;12.50;99.90;;;;;;4938279;28;20087;-81
2022/05/13 02:53:48;;;;;;;27.08;6.80;;;12.50;99.90;;;;;;4971981;28;20050;-80
2022/05/13 02:56:14;;;;;;;27.08;8.38;;;12.50;99.90;;;;;;4971926;28;20178;-84
2022/05/13 02:58:41;;;;;;;29.75;8.32;;;12.50;99.90;;;;;;4954470;28;20573;-83
2022/05/13 03:01:09;;;;;;;30.42;7.30;;;12.50;99.90;;;;;;4957348;28;20046;-79
2022/05/13 03:03:38;;;;;;;22.75;6.60;;;12.50;99.90;;;;;;4975619;28;20078;-80
2022/05/13 03:06:04;;;;;;;32.13;8.07;;;12.50;99.90;;;;;;4971557;28;20578;-80
2022/05/13 03:08:30;;;;;;;26.60;8.18;;;12.50;99.90;;;;;;4954559;28;20161;-83
2022/05/13 03:10:56;;;;;;;31.35;7.53;;;12.50;99.90;;;;;;4971872;28;20050;-80
2022/05/13 03:13:22;;;;;;;27.55;7.35;;;12.50;99.90;;;;;;4971873;28;20159;-80
2022/05/13 03:15:48;;;;;;;23.05;6.93;;;12.50;99.90;;;;;;4971653;28;20046;-84
2022/05/13 03:18:14;;;;;;;29.60;8.07;;;12.50;99.90;;;;;;4972104;28;20059;-82
2022/05/13 03:20:41;;;;;;;29.83;7.47;;;12.50;99.90;;;;;;4942012;28;20050;-84
2022/05/13 03:23:07;;;;;;;26.83;7.50;;;12.50;99.90;;;;;;4973074;28;20055;-80
2022/05/13 03:25:33;;;;;;;20.13;5.68;;;12.60;99.90;;;;;;4971849;28;20074;-79
2022/05/13 03:27:59;;;;;;;29.60;6.60;;;12.60;99.90;;;;;;4971447;28;20517;-81
2022/05/13 03:30:25;;;;;;;25.63;7.20;;;12.60;99.90;;;;;;4954507;28;20094;-84
2022/05/13 03:32:52;;;;;;;27.52;6.45;;;12.60;99.90;;;;;;4954509;28;20074;-80
2022/05/13 03:35:19;;;;;;;23.90;6.65;;;12.60;99.90;;;;;;4972715;28;20117;-81
2022/05/13 03:37:46;;;;;;;26.15;5.78;;;12.60;99.90;;;;;;4974929;28;20499;-82
2022/05/13 03:40:14;;;;;;;27.25;5.75;;;12.70;99.90;;;;;;4977330;28;20117;-85
2022/05/13 03:42:40;;;;;;;25.08;5.78;;;12.70;99.90;;;;;;4958109;28;20407;-82
2022/05/13 03:45:11;;;;;;;24.35;5.90;;;12.70;99.90;;;;;;4958079;28;20483;-82
2022/05/13 03:47:37;;;;;;;25.60;6.28;;;12.70;99.90;;;;;;4942148;28;20053;-79
2022/05/13 03:50:04;;;;;;;30.40;6.22;;;12.70;99.90;;;;;;4974720;28;20058;-81
2022/05/13 03:52:30;;;;;;;25.27;6.05;;;12.70;99.90;;;;;;4958069;28;20089;-83
2022/05/13 03:54:57;;;;;;;24.63;5.97;;;12.70;99.90;;;;;;4958030;28;20058;-83
2022/05/13 03:57:23;;;;;;;26.33;6.18;;;12.70;99.90;;;;;;4976687;28;20503;-80
2022/05/13 03:59:49;;;;;;;25.45;7.55;;;12.70;99.90;;;;;;4957367;28;20050;-84
2022/05/13 04:02:14;;;;;;;26.55;6.68;;;12.70;99.90;;;;;;4975018;28;20058;-82
2022/05/13 04:10:10;;;;;;;19.08;6.45;;;12.70;99.90;;;;;;4958182;28;20065;-83
2022/05/13 04:18:05;;;;;;;25.52;7.22;;;12.70;99.90;;;;;;4974739;28;20082;-80
2022/05/13 04:20:32;;;;;;;22.38;5.25;;;12.60;99.90;;;;;;4974637;28;20527;-81
2022/05/13 04:22:58;;;;;;;24.75;6.35;;;12.70;99.90;;;;;;4957198;28;20050;-82
2022/05/13 04:25:24;;;;;;;17.15;5.03;;;12.60;99.90;;;;;;4975179;28;20090;-80
2022/05/13 04:27:50;;;;;;;18.55;5.60;;;12.60;99.90;;;;;;4959956;28;20049;-83
2022/05/13 04:30:17;;;;;;;20.05;6.13;;;12.60;99.90;;;;;;4976003;28;20491;-80
2022/05/13 04:32:43;;;;;;;19.75;5.13;;;12.60;99.90;;;;;;4957040;28;20039;-82
2022/05/13 04:35:09;;;;;;;23.17;4.93;;;12.60;99.90;;;;;;4957022;28;20125;-82
2022/05/13 04:37:37;;;;;;;25.17;6.65;;;12.70;99.90;;;;;;4973949;28;20043;-81
2022/05/13 04:40:03;;;;;;;14.13;5.82;;;12.60;99.90;;;;;;4973627;28;20094;-84
2022/05/13 04:45:13;;;;;;;13.23;4.63;;;12.70;99.90;;;;;;4975384;28;20063;-83
2022/05/13 04:50:23;;;;;;;14.25;3.92;;;12.60;99.90;;;;;;4973554;28;20471;-81
2022/05/13 04:52:49;;;;;;;14.27;4.82;;;12.70;99.90;;;;;;4956473;28;20050;-83
2022/05/13 04:55:14;;;;;;;15.43;4.18;;;12.70;99.90;;;;;;4973774;28;20047;-82
2022/05/13 04:57:40;;;;;;;17.05;4.20;;;12.70;99.90;;;;;;4940278;28;20055;-83
2022/05/13 05:00:07;;;;;;;9.50;3.25;;;12.70;99.90;;;;;;4974624;28;20054;-83
2022/05/13 05:02:35;;;;;;;13.00;3.58;;;12.70;99.90;;;;;;4957191;28;20062;-81
2022/05/13 05:05:01;;;;;;;11.00;2.67;;;12.70;99.90;;;;;;4976754;28;20090;-83
2022/05/13 05:07:26;;;;;;;9.43;2.53;;;12.80;99.90;;;;;;4972352;28;20089;-83
2022/05/13 05:09:52;;;;;;;7.05;2.42;;;12.80;99.90;;;;;;4956281;28;20061;-83
2022/05/13 05:12:18;;;;;;;9.35;1.95;;;12.80;99.90;;;;;;4956709;28;20046;-83
2022/05/13 05:14:44;;;;;;;7.32;2.40;;;12.90;99.90;;;;;;4957112;28;20121;-81
2022/05/13 05:17:10;;;;;;;14.55;2.65;;;12.90;99.90;;;;;;4974774;28;20121;-81
2022/05/13 05:19:36;;;;;;;12.98;2.95;;;12.90;99.90;;;;;;4973334;28;20051;-79
2022/05/13 05:22:02;;;;;;;11.05;2.80;;;12.90;99.90;;;;;;4974741;28;20054;-82
2022/05/13 05:24:28;;;;;;;9.52;2.97;;;13.00;99.90;;;;;;4960257;28;20057;-81
2022/05/13 05:26:54;;;;;;;12.38;2.90;;;13.00;99.90;;;;;;4973971;28;20058;-82
2022/05/13 05:29:20;;;;;;;11.80;2.85;;;13.00;99.90;;;;;;4956038;28;20054;-82
2022/05/13 05:31:45;;;;;;;11.13;2.92;;;13.00;99.90;;;;;;4974004;28;20054;-80
2022/05/13 05:34:12;;;;;;;11.38;2.28;;;13.00;99.90;;;;;;4972411;28;20557;-81
2022/05/13 05:36:38;;;;;;;9.00;2.13;;;13.00;99.90;;;;;;4973473;28;20113;-80
2022/05/13 05:39:04;;;;;;;12.73;2.60;;;13.00;99.90;;;;;;4955855;28;20054;-79
2022/05/13 05:41:30;;;;;;;12.75;2.22;;;13.00;99.90;;;;;;4956737;28;20577;-80
2022/05/13 05:43:56;;;;;;;9.75;2.30;;;13.00;99.90;;;;;;4959816;28;20054;-81
2022/05/13 05:46:22;;;;;;;7.75;2.17;;;13.00;99.90;;;;;;4973266;28;20051;-80
2022/05/13 05:48:48;;;;;;;9.30;2.22;;;13.00;99.90;;;;;;4955656;28;20043;-80
2022/05/13 05:51:14;;;;;;;10.10;2.08;;;13.00;99.90;;;;;;4939738;28;20097;-80
2022/05/13 05:59:08;;;;;;;8.13;2.05;;;13.10;99.90;;;;;;4972780;28;20398;-83
2022/05/13 06:01:34;;;;;;;7.32;2.17;;;13.10;99.90;;;;;;4955521;28;20066;-84
2022/05/13 06:04:01;;;;;;;16.73;2.83;;;13.10;99.90;;;;;;4956704;28;20050;-79
2022/05/13 06:06:27;;;;;;;12.18;2.70;;;13.00;99.90;;;;;;4973287;28;20057;-81
2022/05/13 06:08:54;;;;;;;12.45;3.17;;;13.00;99.90;;;;;;4955262;28;20058;-81
2022/05/13 06:11:23;;;;;;;8.05;2.63;;;13.00;99.90;;;;;;4954943;28;20514;-84
2022/05/13 06:13:53;;;;;;;10.43;3.20;;;13.00;99.90;;;;;;4972583;28;20086;-81
2022/05/13 06:16:22;;;;;;;9.77;2.60;;;13.00;99.90;;;;;;4972318;28;20540;-83
2022/05/13 06:18:49;;;;;;;12.90;2.97;;;13.10;99.90;;;;;;4955236;28;20137;-81
2022/05/13 06:21:15;;;;;;;11.77;2.85;;;13.10;99.90;;;;;;4955404;28;20093;-82
2022/05/13 06:23:41;;;;;;;14.73;3.00;;;13.20;99.90;;;;;;4974095;28;20050;-81
2022/05/13 06:26:07;;;;;;;10.82;2.83;;;13.30;99.90;;;;;;4954977;28;20047;-81
2022/05/13 06:28:33;;;;;;;8.68;1.90;;;13.30;99.90;;;;;;4972208;28;20138;-79
2022/05/13 06:30:59;;;;;;;15.55;2.97;;;13.40;99.90;;;;;;4971814;28;20042;-80
2022/05/13 06:33:26;;;;;;;9.30;2.50;;;13.40;99.90;;;;;;4954973;28;20538;-81
2022/05/13 06:35:52;;;;;;;10.85;2.67;;;13.50;99.90;;;;;;4971998;28;20047;-80
2022/05/13 06:38:20;;;;;;;9.98;2.30;;;13.50;99.90;;;;;;4974313;28;20053;-82
2022/05/13 06:40:47;;;;;;;16.88;2.63;;;13.50;99.90;;;;;;4954671;28;20141;-79
2022/05/13 06:43:14;;;;;;;7.72;2.40;;;13.50;99.90;;;;;;4954835;28;20462;-79
2022/05/13 06:45:41;;;;;;;9.50;2.22;;;13.50;99.90;;;;;;4954683;28;20066;-83
2022/05/13 06:48:08;;;;;;;9.70;2.42;;;13.50;99.90;;;;;;4954784;28;20159;-80
2022/05/13 06:50:33;;;;;;;7.18;2.47;;;13.50;99.90;;;;;;4954248;28;20403;-82
2022/05/13 06:52:59;;;;;;;9.18;2.83;;;13.60;99.90;;;;;;4954820;28;20050;-80
2022/05/13 06:55:25;;;;;;;9.82;2.47;;;13.80;99.90;;;;;;4956761;28;20062;-82
2022/05/13 06:57:51;;;;;;;14.65;2.75;;;14.00;99.90;;;;;;4954712;28;20051;-82
2022/05/13 07:00:18;;;;;;;9.85;2.45;;;14.20;99.90;;;;;;4971754;28;20051;-80
2022/05/13 07:02:44;;;;;;;11.27;2.28;;;14.20;99.90;;;;;;4923140;28;20129;-80
2022/05/13 07:05:12;;;;;;;9.27;1.98;;;14.10;99.90;;;;;;4971713;28;20047;-80
2022/05/13 07:07:39;;;;;;;10.38;2.75;;;14.10;99.90;;;;;;4971765;28;20043;-80
2022/05/13 07:10:06;;;;;;;12.40;3.15;;;14.00;99.90;;;;;;4973504;28;20549;-79
2022/05/13 07:12:32;;;;;;;11.88;1.67;;;14.30;99.90;;;;;;4977343;28;20050;-81
2022/05/13 07:14:58;;;;;;;8.93;2.13;;;14.60;99.90;;;;;;4960824;28;20057;-81
2022/05/13 07:17:25;;;;;;;13.18;2.53;;;14.70;99.90;;;;;;4976502;28;20420;-82
2022/05/13 07:19:51;;;;;;;10.98;2.45;;;14.90;99.90;;;;;;4975691;28;20047;-81
2022/05/13 07:22:17;;;;;;;10.75;2.63;;;15.10;99.90;;;;;;4975757;28;20495;-81
2022/05/13 07:24:43;;;;;;;9.27;1.73;;;15.10;99.90;;;;;;4976037;28;20054;-81
2022/05/13 07:27:09;;;;;;;12.07;2.47;;;15.00;99.90;;;;;;4959750;28;20463;-82
2022/05/13 07:29:34;;;;;;;10.48;2.08;;;14.80;99.90;;;;;;4980933;28;20066;-82
2022/05/13 07:32:00;;;;;;;8.80;1.80;;;14.80;99.90;;;;;;4947798;28;20043;-86
2022/05/13 07:34:26;;;;;;;14.13;2.78;;;14.80;99.90;;;;;;4957876;28;20050;-82
2022/05/13 07:36:54;;;;;;;12.07;2.28;;;14.80;99.90;;;;;;4975272;28;20091;-82
2022/05/13 07:42:09;;;;;;;12.63;2.30;;;14.70;99.90;;;;;;4974380;28;20051;-87
2022/05/13 07:44:35;;;;;;;6.78;1.95;;;14.60;99.90;;;;;;4957632;28;20178;-85
2022/05/13 07:47:04;;;;;;;10.48;2.67;;;14.50;99.90;;;;;;4959413;28;20555;-82
2022/05/13 07:49:30;;;;;;;8.93;2.20;;;14.50;99.90;;;;;;4977768;28;20105;-82
2022/05/13 07:51:56;;;;;;;11.93;2.45;;;14.60;99.90;;;;;;4958110;28;20050;-83
2022/05/13 07:54:22;;;;;;;13.63;2.15;;;14.70;99.90;;;;;;4941679;28;20062;-81
2022/05/13 07:56:48;;;;;;;12.68;2.85;;;14.90;99.90;;;;;;4941837;28;20054;-83
2022/05/13 07:59:14;;;;;;;10.10;2.10;;;14.90;99.90;;;;;;4973605;28;20109;-84
2022/05/13 08:01:39;;;;;;;10.98;2.50;;;15.00;99.90;;;;;;4957550;28;20050;-80
2022/05/13 08:04:05;;;;;;;15.05;2.92;;;15.00;99.90;;;;;;4974782;28;20097;-81
2022/05/13 08:06:32;;;;;;;8.77;1.92;;;15.00;99.90;;;;;;4958972;28;20137;-81
2022/05/13 08:08:58;;;;;;;8.50;1.92;;;15.10;99.90;;;;;;4974627;28;20086;-82
2022/05/13 08:11:29;;;;;;;11.50;1.92;;;15.50;99.90;;;;;;4974424;28;20098;-82
2022/05/13 08:13:56;;;;;;;12.07;3.03;;;15.70;99.90;;;;;;4957120;28;20527;-82
2022/05/13 08:16:29;;;;;;;9.57;2.20;;;15.70;99.90;;;;;;4974399;28;20061;-80
2022/05/13 08:18:57;;;;;;;9.27;2.17;;;15.90;99.90;;;;;;4957930;28;20467;-80
2022/05/13 08:21:23;;;;;;;9.43;2.17;;;15.80;99.90;;;;;;4975023;28;20055;-83
2022/05/13 08:23:50;;;;;;;11.90;2.17;;;15.60;99.90;;;;;;4958950;28;20066;-81
2022/05/13 08:26:16;;;;;;;11.65;2.50;;;15.70;99.90;;;;;;4974634;28;20406;-80
2022/05/13 08:28:43;;;;;;;13.32;3.00;;;15.80;99.90;;;;;;4974149;28;20495;-82
2022/05/13 08:31:10;;;;;;;12.90;2.33;;;15.90;99.90;;;;;;4956686;28;20058;-81
2022/05/13 08:33:36;;;;;;;8.70;2.78;;;15.90;99.90;;;;;;4974488;28;20495;-82
2022/05/13 08:36:04;;;;;;;9.57;2.33;;;16.00;99.90;;;;;;4957733;28;20491;-80
2022/05/13 08:38:33;;;;;;;8.00;2.33;;;16.10;99.90;;;;;;4958673;28;20069;-79
2022/05/13 08:41:08;;;;;;;12.40;2.30;;;16.40;99.90;;;;;;4974601;28;20094;-81
2022/05/13 08:43:35;;;;;;;;;;;16.50;99.90;;;;;;4974585;28;20458;-82
2022/05/13 08:46:33;;;;;;;8.63;2.00;;;16.30;99.90;;;;;;4956839;28;19969;-79
2022/05/13 08:49:17;;;;;;;14.00;2.40;;;16.30;99.90;;;;;;4955955;28;20069;-80
2022/05/13 08:54:58;;;;;;;8.15;2.65;;;16.70;99.90;;;;;;4973915;28;20043;-86
2022/05/13 08:57:31;;;;;;;11.45;2.33;;;16.90;99.90;;;;;;4957344;28;20125;-81
2022/05/13 09:00:06;;;;;;;10.25;1.83;;;16.70;99.90;;;;;;4973498;28;20117;-82
2022/05/13 09:02:41;;;;;;;6.97;2.38;;;16.50;99.90;;;;;;4955895;28;20057;-83
2022/05/13 09:05:26;;;;;;;14.52;3.30;;;16.90;99.90;;;;;;4973405;28;20097;-81
2022/05/13 09:07:52;;;;;;;8.38;2.00;;;17.10;99.90;;;;;;4966181;28;20054;-83
2022/05/13 09:10:18;;;;;;;9.63;2.13;;;17.10;99.90;;;;;;4973587;28;20051;-83
2022/05/13 09:13:02;;;;;;;12.02;2.53;;;16.90;99.90;;;;;;4958618;28;20105;-82
2022/05/13 09:15:44;;;;;;;9.35;2.90;;;16.70;99.90;;;;;;4956480;28;20066;-82
2022/05/13 09:18:28;;;;;;;7.25;1.88;;;16.90;99.90;;;;;;4955962;28;20061;-83
2022/05/13 09:21:02;;;;;;;10.82;2.17;;;16.80;99.90;;;;;;4973373;28;20055;-81
2022/05/13 09:23:31;;;;;;;6.88;1.75;;;16.50;99.90;;;;;;4953422;28;20047;-81
2022/05/13 09:26:06;;;;;;;9.00;2.10;;;16.40;99.90;;;;;;4973112;28;20058;-81
2022/05/13 09:28:35;;;;;;;10.18;2.40;;;16.50;99.90;;;;;;4956183;28;20154;-80
2022/05/13 09:31:20;;;;;;;10.13;3.22;;;16.50;99.90;;;;;;4977016;28;20185;-83
2022/05/13 09:33:47;;;;;;;6.00;1.63;;;16.20;99.90;;;;;;4957123;28;20665;-85
2022/05/13 09:36:34;;;;;;;9.88;2.35;;;16.10;99.90;;;;;;4973009;28;20510;-84
2022/05/13 09:39:15;;;;;;;11.93;3.03;;;16.20;99.90;;;;;;4955654;28;20093;-83
2022/05/13 09:41:41;;;;;;;23.25;2.72;;;16.30;99.90;;;;;;4973211;28;20058;-83
2022/05/13 09:44:18;;;;;;;14.68;3.13;;;16.40;99.90;;;;;;4972980;28;20061;-81
2022/05/13 09:46:47;;;;;;;15.70;3.00;;;16.50;99.90;;;;;;4956074;28;20050;-82
2022/05/13 09:49:25;;;;;;;11.98;2.08;;;16.20;99.90;;;;;;4972113;28;20133;-80
2022/05/13 09:52:13;;;;;;;9.52;1.98;;;16.30;99.90;;;;;;4955099;28;20089;-83
2022/05/13 09:54:44;;;;;;;7.53;2.50;;;16.40;99.90;;;;;;4972806;28;20106;-82
2022/05/13 09:57:14;;;;;;;10.38;2.55;;;16.30;99.90;;;;;;4972890;28;20451;-84
2022/05/13 09:59:44;;;;;;;10.30;2.80;;;16.30;99.90;;;;;;4973107;28;20116;-84
2022/05/13 10:02:20;;;;;;;11.80;2.35;;;16.70;99.90;;;;;;4968282;28;20109;-84
2022/05/13 10:04:52;;;;;;;10.13;2.20;;;16.80;99.90;;;;;;4963813;28;20090;-82
2022/05/13 10:07:18;;;;;;;10.88;2.65;;;17.10;99.90;;;;;;4958379;28;20051;-81
2022/05/13 10:15:28;;;;;;;13.68;2.65;;;17.10;99.90;;;;;;4971231;28;20054;-82
2022/05/13 10:18:05;;;;;;;13.15;2.45;;;17.30;99.90;;;;;;4972465;28;20480;-80
2022/05/13 10:20:40;;;;;;;10.73;2.25;;;17.10;99.90;;;;;;4973246;28;20051;-86
2022/05/13 10:23:32;;;;;;;13.07;3.60;;;17.20;99.90;;;;;;4971176;28;20134;-82
2022/05/13 10:26:12;;;;;;;10.43;3.10;;;17.20;99.90;;;;;;4972044;28;20133;-81
2022/05/13 10:28:46;;;;;;;13.63;3.22;;;17.10;99.90;;;;;;4972609;28;20414;-82
2022/05/13 10:31:19;;;;;;;11.95;2.65;;;17.30;99.90;;;;;;4974501;28;20054;-85
2022/05/13 10:34:22;;;;;;;12.18;2.83;;;17.70;99.90;;;;;;4972200;28;20066;-83
2022/05/13 10:37:01;;;;;;;6.88;1.98;;;17.50;99.90;;;;;;4971951;28;20061;-83
2022/05/13 10:39:46;;;;;;;16.75;3.08;;;17.70;99.90;;;;;;4971946;28;20502;-85
2022/05/13 10:42:23;;;;;;;14.23;2.70;;;17.40;99.90;;;;;;4954774;28;20059;-84
2022/05/13 10:45:08;;;;;;;9.85;2.60;;;17.40;99.90;;;;;;4971572;28;20130;-83
2022/05/13 10:47:41;;;;;;;;;;;17.50;99.90;;;;;;4972857;28;20137;-85
2022/05/13 10:50:50;;;;;;;10.90;2.88;;;17.70;99.90;;;;;;4975740;28;20321;-83
2022/05/13 10:53:47;;;;;;;10.82;2.47;;;17.30;99.90;;;;;;4936539;28;20062;-84
2022/05/13 10:56:33;;;;;;;11.40;2.70;;;17.40;99.90;;;;;;4954971;28;20141;-82
2022/05/13 10:59:05;;;;;;;13.20;2.72;;;17.40;99.90;;;;;;4954652;28;20055;-83
2022/05/13 11:01:31;;;;;;;9.65;2.00;;;17.30;99.60;;;;;;4971726;28;20081;-82
2022/05/13 11:04:15;;;;;;;13.90;2.60;;;17.00;99.90;;;;;;4974298;28;20051;-81
2022/05/13 11:07:15;;;;;;;17.50;3.53;;;17.40;99.90;;;;;;4956215;28;20073;-82
2022/05/13 11:10:09;;;;;;;12.27;2.70;;;17.50;99.90;;;;;;4971983;28;20562;-82
2022/05/13 11:12:54;;;;;;;12.27;2.33;;;17.40;99.90;;;;;;4971835;28;20055;-81
2022/05/13 11:15:47;;;;;;;9.43;2.85;;;17.70;99.90;;;;;;4971521;28;20051;-82
2022/05/13 11:18:53;;;;;;;16.70;2.72;;;17.90;99.80;;;;;;4954931;28;20058;-80
2022/05/13 11:21:36;;;;;;;11.60;3.33;;;17.80;99.90;;;;;;4963577;28;20057;-82
2022/05/13 11:27:42;;;;;;;10.18;2.67;;;17.80;99.90;;;;;;4953361;28;20145;-84
2022/05/13 11:30:11;;;;;;;11.95;3.03;;;17.60;99.90;;;;;;4953852;28;20042;-81
2022/05/13 11:32:55;;;;;;;16.85;3.47;;;17.40;99.90;;;;;;4938335;28;20082;-83
2022/05/13 11:35:35;;;;;;;10.48;2.83;;;17.40;99.90;;;;;;4971827;28;20495;-81
2022/05/13 11:38:08;;;;;;;15.10;2.83;;;17.40;99.90;;;;;;4954648;28;20053;-81
2022/05/13 11:40:56;;;;;;;9.07;2.83;;;17.70;99.90;;;;;;4972135;28;20509;-81
2022/05/13 11:43:34;;;;;;;10.43;2.55;;;17.70;99.90;;;;;;4957305;28;20118;-83
2022/05/13 11:46:09;;;;;;;12.52;3.33;;;17.90;99.90;;;;;;4972413;28;20054;-84
2022/05/13 11:48:44;;;;;;;12.65;3.00;;;17.90;99.90;;;;;;4971464;28;20057;-84
2022/05/13 11:51:24;;;;;;;8.27;2.83;;;18.00;99.90;;;;;;4971391;28;20062;-83
2022/05/13 11:54:00;;;;;;;10.02;2.53;;;18.70;99.60;;;;;;4954469;28;20063;-81
2022/05/13 11:56:26;;;;;;;8.98;2.72;;;18.60;97.90;;;;;;4973363;28;20122;-83
2022/05/13 11:59:03;;;;;;;11.65;2.90;;;18.10;98.80;;;;;;4978673;28;20584;-82
2022/05/13 12:01:44;;;;;;;11.02;3.30;;;17.90;99.40;;;;;;4959582;28;20185;-84
2022/05/13 12:04:15;;;;;;;10.73;2.95;;;17.70;99.50;;;;;;4957538;28;20066;-81
2022/05/13 12:06:50;;;;;;;9.20;2.40;;;17.60;99.90;;;;;;4957466;28;20058;-82
2022/05/13 12:09:26;;;;;;;9.93;3.00;;;17.60;99.90;;;;;;4975213;28;20129;-82
2022/05/13 12:11:55;;;;;;;12.80;2.80;;;17.60;99.90;;;;;;4957681;28;20054;-81
2022/05/13 12:14:43;;;;;;;9.02;2.33;;;17.50;99.90;;;;;;4957277;28;20086;-83
2022/05/13 12:17:14;;;;;;;11.15;2.30;;;17.40;99.90;;;;;;4975967;28;20047;-82
2022/05/13 12:19:59;;;;;;;10.68;2.70;;;17.10;99.90;;;;;;4974610;28;20490;-84
2022/05/13 12:22:31;;;;;;;13.90;3.38;;;17.10;99.90;;;;;;4974441;28;20059;-83
2022/05/13 12:25:02;;;;;;;11.13;2.58;;;17.20;99.90;;;;;;4973615;28;20146;-81
2022/05/13 12:27:46;;;;;;;12.32;2.67;;;17.30;99.90;;;;;;4957558;28;20043;-80
2022/05/13 12:30:29;;;;;;;12.88;2.90;;;17.30;99.90;;;;;;4975161;28;20059;-83
2022/05/13 12:32:57;;;;;;;11.65;2.83;;;17.30;99.90;;;;;;4977513;28;20051;-81
2022/05/13 12:38:26;;;;;;;9.55;2.45;;;17.30;99.90;;;;;;4959878;28;20061;-80
2022/05/13 12:41:10;;;;;;;12.45;2.55;;;17.30;99.90;;;;;;4956389;28;20062;-82
2022/05/13 12:44:06;;;;;;;10.13;2.28;;;17.10;99.90;;;;;;4973869;28;20043;-82
2022/05/13 12:46:41;;;;;;;11.40;2.95;;;17.10;99.90;;;;;;4956963;28;20057;-82
2022/05/13 12:49:11;;;;;;;7.68;2.25;;;17.10;99.90;;;;;;4973669;28;20061;-83
2022/05/13 12:52:01;;;;;;;10.77;2.95;;;16.90;99.90;;;;;;4978110;28;20098;-81
2022/05/13 12:54:31;;;;;;;13.57;2.78;;;16.70;99.90;;;;;;4977939;28;20055;-82
2022/05/13 12:57:09;;;;;;;12.13;3.10;;;16.70;99.90;;;;;;4973970;28;20082;-81
2022/05/13 12:59:39;;;;;;;12.55;2.85;;;16.60;99.90;;;;;;4972837;28;20080;-80
2022/05/13 13:02:06;;;;;;;11.27;3.10;;;16.40;99.90;;;;;;4974679;28;20503;-80
2022/05/13 13:04:36;;;;;;;12.10;2.47;;;16.30;99.90;;;;;;4957696;28;20073;-84
2022/05/13 13:07:11;;;;;;;9.90;2.72;;;16.20;99.90;;;;;;4974795;28;20705;-80
2022/05/13 13:09:43;;;;;;;15.73;3.47;;;16.20;99.90;;;;;;4959344;28;20130;-82
2022/05/13 13:12:27;;;;;;;9.75;2.95;;;16.10;99.90;;;;;;4979924;28;20141;-85
2022/05/13 13:15:01;;;;;;;15.55;2.67;;;16.30;99.90;;;;;;4973570;28;20495;-83
2022/05/13 13:17:33;;;;;;;10.52;2.80;;;16.60;99.90;;;;;;4956122;28;20046;-83
2022/05/13 13:20:02;;;;;;;12.45;3.28;;;16.80;99.90;;;;;;4972997;28;20090;-83
2022/05/13 13:22:36;;;;;;;10.23;2.70;;;17.00;99.90;;;;;;4973659;28;20087;-83
2022/05/13 13:25:12;;;;;;;;;;;17.00;99.90;;;;;;4974156;28;20058;-85
2022/05/13 13:27:39;;;;;;;;;;;16.80;99.90;;;;;;4978766;28;20222;-84
2022/05/13 13:30:12;;;;;;;9.40;2.13;;;17.00;99.90;;;;;;4974185;28;19961;-80
2022/05/13 13:32:46;;;;;;;12.85;2.42;;;17.00;99.90;;;;;;4956105;28;20555;-85
2022/05/13 13:35:12;;;;;;;11.02;2.53;;;17.00;99.90;;;;;;4973194;28;20051;-82
2022/05/13 13:37:38;;;;;;;12.43;2.53;;;17.20;99.90;;;;;;4973156;28;20145;-79
2022/05/13 13:40:20;;;;;;;13.32;3.08;;;17.20;99.90;;;;;;4955470;28;20058;-84